Yellowstone Airport
KWYS : now visible

Airfield :











YOU CAN JOIN US ON...

 
LOGIN :

Register | Disclaimer

   EN    FR    IT 

 









Legend :    VFR   Marginal VFR   IFR   Intensive IFR   Very Intensive IFR
Visi :
Ceiling :
>= 8 km
>= 3000ft
5 to 8 km
1000 to 3000 ft
1500m to 5 km
500 to 1000 ft
800 to 1500m
200 to 500 ft
< 800m
< 200 ft
Symbols :   Thunderstorms  Fog  Heavy snow  Heavy precipitations  Wind > 20 kt






- Airport Elevation : 6649 ft


KWYS - Yellowstone

CURRENT METAR :
  • 222255Z AUTO 23013G19KT 190V250 10SM FEW120 28/M02 A2998 RMK AO2

EXPIRED METARs :
  • 222235Z AUTO 23017KT 220V300 10SM FEW120 28/M03 A2999 RMK AO2
  • 222215Z AUTO 23015G23KT 10SM FEW120 28/M04 A3000 RMK AO2
  • 222155Z AUTO 24008G18KT 210V280 10SM CLR 28/M04 A3001 RMK AO2
  • 222135Z AUTO 23017KT 10SM CLR 28/M04 A3000 RMK AO2
  • 222115Z AUTO 27013G22KT 230V320 10SM CLR 29/M04 A3001 RMK AO2
  • 222055Z AUTO 26011G24KT 230V290 10SM CLR 28/M04 A3001 RMK AO2
  • 222035Z AUTO 23009G18KT 200V260 10SM CLR 28/M03 A3001 RMK AO2
  • 222015Z AUTO 25011G21KT 220V290 10SM CLR 28/M03 A3002 RMK AO2

TAF KWYS
Valid from the 22 at 18:00 until the 23 at 18:00 UTC


221746Z 2218/2318 24010KT P6SM SCT100
FM230000 VRB05KT P6SM SCT050 BKN100
TEMPO 2301/2304 VRB15G25KT -TSRA BKN060CB
FM231000 VRB04KT P6SM BKN150
FM231500 23009KT P6SM SCT150
KZLC FIR / North America



MET'MAP, your aeronautical weather chart ! - Copyright ORBIFLY December 2007 - Disclaimer

ORBIFLY MET'MAP TEAM :

Programming & Development : Alexandra Zaïnal
Concept & original design : Baudouin d'Aumeries
Assistance for programming : Marc-Olivier Méhu
Technical & hardware support : Manuel Goepfert

Contact : metmap@orbifly.com




SOURCES & CREDITS :

   NOAA       Earth
Advisory